sensor_id;sensor_type;location;lat;lon;timestamp;temperature;humidity
3380;DHT22;1703;51.964;7.642;2023-02-28T00:00:00;2.70;99.90
3380;DHT22;1703;51.964;7.642;2023-02-28T00:02:35;2.70;99.90
3380;DHT22;1703;51.964;7.642;2023-02-28T00:05:03;2.70;99.90
3380;DHT22;1703;51.964;7.642;2023-02-28T00:07:30;2.70;99.90
3380;DHT22;1703;51.964;7.642;2023-02-28T00:10:04;2.70;99.90
3380;DHT22;1703;51.964;7.642;2023-02-28T00:12:33;2.60;99.90
3380;DHT22;1703;51.964;7.642;2023-02-28T00:14:59;2.60;99.90
3380;DHT22;1703;51.964;7.642;2023-02-28T00:17:26;2.60;99.90
3380;DHT22;1703;51.964;7.642;2023-02-28T00:19:53;2.60;99.90
3380;DHT22;1703;51.964;7.642;2023-02-28T00:22:20;2.50;99.90
3380;DHT22;1703;51.964;7.642;2023-02-28T00:24:47;2.60;99.90
3380;DHT22;1703;51.964;7.642;2023-02-28T00:27:15;2.50;99.90
3380;DHT22;1703;51.964;7.642;2023-02-28T00:29:42;2.50;99.90
3380;DHT22;1703;51.964;7.642;2023-02-28T00:32:10;2.40;99.90
3380;DHT22;1703;51.964;7.642;2023-02-28T00:34:37;2.30;99.90
3380;DHT22;1703;51.964;7.642;2023-02-28T00:37:05;2.30;99.90
3380;DHT22;1703;51.964;7.642;2023-02-28T00:39:34;2.30;99.90
3380;DHT22;1703;51.964;7.642;2023-02-28T00:42:02;2.40;99.90
3380;DHT22;1703;51.964;7.642;2023-02-28T00:44:30;2.30;99.90
3380;DHT22;1703;51.964;7.642;2023-02-28T00:46:57;2.40;99.90
3380;DHT22;1703;51.964;7.642;2023-02-28T00:49:25;2.30;99.90
3380;DHT22;1703;51.964;7.642;2023-02-28T00:51:52;2.20;99.90
3380;DHT22;1703;51.964;7.642;2023-02-28T00:54:20;2.20;99.90
3380;DHT22;1703;51.964;7.642;2023-02-28T00:56:47;2.20;99.90
3380;DHT22;1703;51.964;7.642;2023-02-28T00:59:14;2.10;99.90
3380;DHT22;1703;51.964;7.642;2023-02-28T01:01:44;2.00;99.90
3380;DHT22;1703;51.964;7.642;2023-02-28T01:04:11;2.10;99.90
3380;DHT22;1703;51.964;7.642;2023-02-28T01:06:38;2.00;99.90
3380;DHT22;1703;51.964;7.642;2023-02-28T01:09:06;2.00;99.90
3380;DHT22;1703;51.964;7.642;2023-02-28T01:11:34;1.90;99.90
3380;DHT22;1703;51.964;7.642;2023-02-28T01:14:01;1.90;99.90
3380;DHT22;1703;51.964;7.642;2023-02-28T01:16:28;1.90;99.90
3380;DHT22;1703;51.964;7.642;2023-02-28T01:18:56;2.00;99.90
3380;DHT22;1703;51.964;7.642;2023-02-28T01:21:23;2.00;99.90
3380;DHT22;1703;51.964;7.642;2023-02-28T01:23:50;2.00;99.90
3380;DHT22;1703;51.964;7.642;2023-02-28T01:26:19;2.00;99.90
3380;DHT22;1703;51.964;7.642;2023-02-28T01:28:47;2.00;99.90
3380;DHT22;1703;51.964;7.642;2023-02-28T01:31:14;2.00;99.90
3380;DHT22;1703;51.964;7.642;2023-02-28T01:33:41;2.00;99.90
3380;DHT22;1703;51.964;7.642;2023-02-28T01:36:12;2.00;99.90
3380;DHT22;1703;51.964;7.642;2023-02-28T01:38:40;2.00;99.90
3380;DHT22;1703;51.964;7.642;2023-02-28T01:41:08;2.00;99.90
3380;DHT22;1703;51.964;7.642;2023-02-28T01:43:57;1.90;99.90
3380;DHT22;1703;51.964;7.642;2023-02-28T01:46:24;1.80;99.90
3380;DHT22;1703;51.964;7.642;2023-02-28T01:48:56;1.90;99.90
3380;DHT22;1703;51.964;7.642;2023-02-28T01:51:29;1.80;99.90
3380;DHT22;1703;51.964;7.642;2023-02-28T01:54:00;1.90;99.90
3380;DHT22;1703;51.964;7.642;2023-02-28T01:56:30;1.90;99.90
3380;DHT22;1703;51.964;7.642;2023-02-28T01:58:57;1.90;99.90
3380;DHT22;1703;51.964;7.642;2023-02-28T02:01:27;1.90;99.90
3380;DHT22;1703;51.964;7.642;2023-02-28T02:03:56;1.70;99.90
3380;DHT22;1703;51.964;7.642;2023-02-28T02:06:29;1.80;99.90
3380;DHT22;1703;51.964;7.642;2023-02-28T02:08:56;1.70;99.90
3380;DHT22;1703;51.964;7.642;2023-02-28T02:11:23;1.70;99.90
3380;DHT22;1703;51.964;7.642;2023-02-28T02:14:05;1.70;99.90
3380;DHT22;1703;51.964;7.642;2023-02-28T02:16:51;1.70;99.90
3380;DHT22;1703;51.964;7.642;2023-02-28T02:19:41;1.60;99.90
3380;DHT22;1703;51.964;7.642;2023-02-28T02:22:26;1.60;99.90
3380;DHT22;1703;51.964;7.642;2023-02-28T02:25:15;1.50;99.90
3380;DHT22;1703;51.964;7.642;2023-02-28T02:28:00;1.60;99.90
3380;DHT22;1703;51.964;7.642;2023-02-28T02:36:33;1.50;99.90
3380;DHT22;1703;51.964;7.642;2023-02-28T02:39:06;1.50;99.90
3380;DHT22;1703;51.964;7.642;2023-02-28T02:41:38;1.50;99.90
3380;DHT22;1703;51.964;7.642;2023-02-28T02:44:11;1.40;99.90
3380;DHT22;1703;51.964;7.642;2023-02-28T02:46:43;1.30;99.90
3380;DHT22;1703;51.964;7.642;2023-02-28T02:49:15;1.30;99.90
3380;DHT22;1703;51.964;7.642;2023-02-28T02:51:44;1.30;99.90
3380;DHT22;1703;51.964;7.642;2023-02-28T02:54:15;1.30;99.90
3380;DHT22;1703;51.964;7.642;2023-02-28T02:56:47;1.30;99.90
3380;DHT22;1703;51.964;7.642;2023-02-28T02:59:17;1.30;99.90
3380;DHT22;1703;51.964;7.642;2023-02-28T03:01:49;1.30;99.90
3380;DHT22;1703;51.964;7.642;2023-02-28T03:04:19;1.30;99.90
3380;DHT22;1703;51.964;7.642;2023-02-28T03:06:47;1.30;99.90
3380;DHT22;1703;51.964;7.642;2023-02-28T03:09:14;1.30;99.90
3380;DHT22;1703;51.964;7.642;2023-02-28T03:11:41;1.30;99.90
3380;DHT22;1703;51.964;7.642;2023-02-28T03:14:20;1.40;99.90
3380;DHT22;1703;51.964;7.642;2023-02-28T03:17:00;1.50;99.90
3380;DHT22;1703;51.964;7.642;2023-02-28T03:19:47;1.50;99.90
3380;DHT22;1703;51.964;7.642;2023-02-28T03:22:31;1.50;99.90
3380;DHT22;1703;51.964;7.642;2023-02-28T03:25:07;1.50;99.90
3380;DHT22;1703;51.964;7.642;2023-02-28T03:27:38;1.50;99.90
3380;DHT22;1703;51.964;7.642;2023-02-28T03:30:10;1.40;99.90
3380;DHT22;1703;51.964;7.642;2023-02-28T03:32:42;1.30;99.90
3380;DHT22;1703;51.964;7.642;2023-02-28T03:35:18;1.30;99.90
3380;DHT22;1703;51.964;7.642;2023-02-28T03:37:52;1.30;99.90
3380;DHT22;1703;51.964;7.642;2023-02-28T03:40:22;1.30;99.90
3380;DHT22;1703;51.964;7.642;2023-02-28T03:42:53;1.20;99.90
3380;DHT22;1703;51.964;7.642;2023-02-28T03:45:23;1.10;99.90
3380;DHT22;1703;51.964;7.642;2023-02-28T03:47:53;1.20;99.90
3380;DHT22;1703;51.964;7.642;2023-02-28T03:50:22;1.10;99.90
3380;DHT22;1703;51.964;7.642;2023-02-28T03:52:57;1.10;99.90
3380;DHT22;1703;51.964;7.642;2023-02-28T03:55:29;1.00;99.90
3380;DHT22;1703;51.964;7.642;2023-02-28T03:58:01;0.90;99.90
3380;DHT22;1703;51.964;7.642;2023-02-28T04:00:31;0.90;99.90
3380;DHT22;1703;51.964;7.642;2023-02-28T04:03:00;1.00;99.90
3380;DHT22;1703;51.964;7.642;2023-02-28T04:05:28;1.00;99.90
3380;DHT22;1703;51.964;7.642;2023-02-28T04:08:05;0.90;99.90
3380;DHT22;1703;51.964;7.642;2023-02-28T04:10:32;0.90;99.90
3380;DHT22;1703;51.964;7.642;2023-02-28T04:12:59;1.00;99.90
3380;DHT22;1703;51.964;7.642;2023-02-28T04:15:25;0.90;99.90
3380;DHT22;1703;51.964;7.642;2023-02-28T04:17:53;0.90;99.90
3380;DHT22;1703;51.964;7.642;2023-02-28T04:20:19;0.80;99.90
3380;DHT22;1703;51.964;7.642;2023-02-28T04:22:46;0.80;99.90
3380;DHT22;1703;51.964;7.642;2023-02-28T04:25:14;0.80;99.90
3380;DHT22;1703;51.964;7.642;2023-02-28T04:27:41;0.80;99.90
3380;DHT22;1703;51.964;7.642;2023-02-28T04:30:11;0.90;99.90
3380;DHT22;1703;51.964;7.642;2023-02-28T04:32:38;0.90;99.90
3380;DHT22;1703;51.964;7.642;2023-02-28T04:35:05;0.90;99.90
3380;DHT22;1703;51.964;7.642;2023-02-28T04:37:32;0.90;99.90
3380;DHT22;1703;51.964;7.642;2023-02-28T04:40:00;0.90;99.90
3380;DHT22;1703;51.964;7.642;2023-02-28T04:42:28;0.80;99.90
3380;DHT22;1703;51.964;7.642;2023-02-28T04:45:01;0.80;99.90
3380;DHT22;1703;51.964;7.642;2023-02-28T04:47:28;0.80;99.90
3380;DHT22;1703;51.964;7.642;2023-02-28T04:49:55;0.70;99.90
3380;DHT22;1703;51.964;7.642;2023-02-28T04:52:22;0.70;99.90
3380;DHT22;1703;51.964;7.642;2023-02-28T04:54:48;0.70;99.90
3380;DHT22;1703;51.964;7.642;2023-02-28T04:57:15;0.70;99.90
3380;DHT22;1703;51.964;7.642;2023-02-28T04:59:43;0.60;99.90
3380;DHT22;1703;51.964;7.642;2023-02-28T05:02:10;0.70;99.90
3380;DHT22;1703;51.964;7.642;2023-02-28T05:04:37;0.70;99.90
3380;DHT22;1703;51.964;7.642;2023-02-28T05:07:04;0.70;99.90
3380;DHT22;1703;51.964;7.642;2023-02-28T05:09:31;0.60;99.90
3380;DHT22;1703;51.964;7.642;2023-02-28T05:11:58;0.60;99.90
3380;DHT22;1703;51.964;7.642;2023-02-28T05:14:25;0.70;99.90
3380;DHT22;1703;51.964;7.642;2023-02-28T05:16:53;0.60;99.90
3380;DHT22;1703;51.964;7.642;2023-02-28T05:19:20;0.60;99.90
3380;DHT22;1703;51.964;7.642;2023-02-28T05:21:52;0.60;99.90
3380;DHT22;1703;51.964;7.642;2023-02-28T05:24:19;0.60;99.90
3380;DHT22;1703;51.964;7.642;2023-02-28T05:26:49;0.50;99.90
3380;DHT22;1703;51.964;7.642;2023-02-28T05:29:16;0.60;99.90
3380;DHT22;1703;51.964;7.642;2023-02-28T05:31:43;0.50;99.90
3380;DHT22;1703;51.964;7.642;2023-02-28T05:34:11;0.50;99.90
3380;DHT22;1703;51.964;7.642;2023-02-28T05:36:38;0.50;99.90
3380;DHT22;1703;51.964;7.642;2023-02-28T05:39:06;0.50;99.90
3380;DHT22;1703;51.964;7.642;2023-02-28T05:41:32;0.50;99.90
3380;DHT22;1703;51.964;7.642;2023-02-28T05:43:59;0.50;99.90
3380;DHT22;1703;51.964;7.642;2023-02-28T05:46:26;0.50;99.90
3380;DHT22;1703;51.964;7.642;2023-02-28T05:48:53;0.50;99.90
3380;DHT22;1703;51.964;7.642;2023-02-28T05:51:22;0.50;99.90
3380;DHT22;1703;51.964;7.642;2023-02-28T05:53:49;0.50;99.90
3380;DHT22;1703;51.964;7.642;2023-02-28T05:56:16;0.60;99.90
3380;DHT22;1703;51.964;7.642;2023-02-28T05:58:42;0.60;99.90
3380;DHT22;1703;51.964;7.642;2023-02-28T06:01:32;0.60;99.90
3380;DHT22;1703;51.964;7.642;2023-02-28T06:03:59;0.60;99.90
3380;DHT22;1703;51.964;7.642;2023-02-28T06:06:28;0.60;99.90
3380;DHT22;1703;51.964;7.642;2023-02-28T06:08:56;0.60;99.90
3380;DHT22;1703;51.964;7.642;2023-02-28T06:11:23;0.60;99.90
3380;DHT22;1703;51.964;7.642;2023-02-28T06:13:53;0.60;99.90
3380;DHT22;1703;51.964;7.642;2023-02-28T06:16:20;0.60;99.90
3380;DHT22;1703;51.964;7.642;2023-02-28T06:18:47;0.70;99.90
3380;DHT22;1703;51.964;7.642;2023-02-28T06:21:13;0.60;99.90
3380;DHT22;1703;51.964;7.642;2023-02-28T06:23:42;0.60;99.90
3380;DHT22;1703;51.964;7.642;2023-02-28T06:26:09;0.60;99.90
3380;DHT22;1703;51.964;7.642;2023-02-28T06:28:36;0.60;99.90
3380;DHT22;1703;51.964;7.642;2023-02-28T06:31:06;0.50;99.90
3380;DHT22;1703;51.964;7.642;2023-02-28T06:33:34;0.40;99.90
3380;DHT22;1703;51.964;7.642;2023-02-28T06:36:01;0.50;99.90
3380;DHT22;1703;51.964;7.642;2023-02-28T06:38:27;0.50;99.90
3380;DHT22;1703;51.964;7.642;2023-02-28T06:40:57;0.50;99.90
3380;DHT22;1703;51.964;7.642;2023-02-28T06:43:24;0.50;99.90
3380;DHT22;1703;51.964;7.642;2023-02-28T06:45:54;0.60;99.90
3380;DHT22;1703;51.964;7.642;2023-02-28T06:48:22;0.50;99.90
3380;DHT22;1703;51.964;7.642;2023-02-28T06:50:49;0.50;99.90
3380;DHT22;1703;51.964;7.642;2023-02-28T06:53:16;0.60;99.90
3380;DHT22;1703;51.964;7.642;2023-02-28T06:55:43;0.60;99.90
3380;DHT22;1703;51.964;7.642;2023-02-28T06:58:11;0.60;99.90
3380;DHT22;1703;51.964;7.642;2023-02-28T07:00:44;0.70;99.90
3380;DHT22;1703;51.964;7.642;2023-02-28T07:03:12;0.70;99.90
3380;DHT22;1703;51.964;7.642;2023-02-28T07:05:40;0.80;99.90
3380;DHT22;1703;51.964;7.642;2023-02-28T07:08:07;0.80;99.90
3380;DHT22;1703;51.964;7.642;2023-02-28T07:10:37;0.80;99.90
3380;DHT22;1703;51.964;7.642;2023-02-28T07:13:05;0.80;99.90
3380;DHT22;1703;51.964;7.642;2023-02-28T07:15:33;0.80;99.90
3380;DHT22;1703;51.964;7.642;2023-02-28T07:18:00;0.70;99.90
3380;DHT22;1703;51.964;7.642;2023-02-28T07:20:27;0.70;99.90
3380;DHT22;1703;51.964;7.642;2023-02-28T07:22:54;0.80;99.90
3380;DHT22;1703;51.964;7.642;2023-02-28T07:25:22;0.70;99.90
3380;DHT22;1703;51.964;7.642;2023-02-28T07:27:48;0.80;99.90
3380;DHT22;1703;51.964;7.642;2023-02-28T07:30:16;0.90;99.90
3380;DHT22;1703;51.964;7.642;2023-02-28T07:32:44;0.90;99.90
3380;DHT22;1703;51.964;7.642;2023-02-28T07:35:11;0.90;99.90
3380;DHT22;1703;51.964;7.642;2023-02-28T07:37:38;0.90;99.90
3380;DHT22;1703;51.964;7.642;2023-02-28T07:40:09;1.00;99.90
3380;DHT22;1703;51.964;7.642;2023-02-28T07:42:36;1.00;99.90
3380;DHT22;1703;51.964;7.642;2023-02-28T07:45:05;1.10;99.90
3380;DHT22;1703;51.964;7.642;2023-02-28T07:47:32;1.20;99.90
3380;DHT22;1703;51.964;7.642;2023-02-28T07:50:01;1.20;99.90
3380;DHT22;1703;51.964;7.642;2023-02-28T07:52:27;1.20;99.90
3380;DHT22;1703;51.964;7.642;2023-02-28T07:54:54;1.20;99.90
3380;DHT22;1703;51.964;7.642;2023-02-28T07:57:22;1.30;99.90
3380;DHT22;1703;51.964;7.642;2023-02-28T07:59:48;1.40;99.90
3380;DHT22;1703;51.964;7.642;2023-02-28T08:02:17;1.40;99.90
3380;DHT22;1703;51.964;7.642;2023-02-28T08:04:44;1.50;99.90
3380;DHT22;1703;51.964;7.642;2023-02-28T08:07:14;1.50;99.90
3380;DHT22;1703;51.964;7.642;2023-02-28T08:09:41;1.50;99.90
3380;DHT22;1703;51.964;7.642;2023-02-28T08:12:10;1.60;99.90
3380;DHT22;1703;51.964;7.642;2023-02-28T08:14:37;1.70;99.90
3380;DHT22;1703;51.964;7.642;2023-02-28T08:17:05;1.70;99.90
3380;DHT22;1703;51.964;7.642;2023-02-28T08:19:32;1.80;99.90
3380;DHT22;1703;51.964;7.642;2023-02-28T08:21:59;1.90;99.90
3380;DHT22;1703;51.964;7.642;2023-02-28T08:24:27;2.00;99.90
3380;DHT22;1703;51.964;7.642;2023-02-28T08:26:54;2.10;99.90
3380;DHT22;1703;51.964;7.642;2023-02-28T08:29:21;2.20;99.90
3380;DHT22;1703;51.964;7.642;2023-02-28T08:31:48;2.30;99.90
3380;DHT22;1703;51.964;7.642;2023-02-28T08:34:16;2.50;99.90
3380;DHT22;1703;51.964;7.642;2023-02-28T08:36:43;2.60;99.90
3380;DHT22;1703;51.964;7.642;2023-02-28T08:39:10;2.80;99.90
3380;DHT22;1703;51.964;7.642;2023-02-28T08:41:39;3.00;99.90
3380;DHT22;1703;51.964;7.642;2023-02-28T08:44:06;3.00;99.90
3380;DHT22;1703;51.964;7.642;2023-02-28T08:46:33;3.10;99.90
3380;DHT22;1703;51.964;7.642;2023-02-28T08:49:00;3.10;99.90
3380;DHT22;1703;51.964;7.642;2023-02-28T08:51:29;3.20;99.90
3380;DHT22;1703;51.964;7.642;2023-02-28T08:54:02;3.30;99.90
3380;DHT22;1703;51.964;7.642;2023-02-28T08:56:29;3.40;99.90
3380;DHT22;1703;51.964;7.642;2023-02-28T08:58:57;3.40;99.90
3380;DHT22;1703;51.964;7.642;2023-02-28T09:01:26;3.50;99.90
3380;DHT22;1703;51.964;7.642;2023-02-28T09:03:54;3.50;99.90
3380;DHT22;1703;51.964;7.642;2023-02-28T09:06:24;3.50;99.90
3380;DHT22;1703;51.964;7.642;2023-02-28T09:08:51;3.50;99.90
3380;DHT22;1703;51.964;7.642;2023-02-28T09:11:18;3.60;99.90
3380;DHT22;1703;51.964;7.642;2023-02-28T09:13:47;3.70;99.90
3380;DHT22;1703;51.964;7.642;2023-02-28T09:16:16;3.80;99.90
3380;DHT22;1703;51.964;7.642;2023-02-28T09:18:43;3.90;99.90
3380;DHT22;1703;51.964;7.642;2023-02-28T09:21:12;3.90;99.90
3380;DHT22;1703;51.964;7.642;2023-02-28T09:23:40;4.00;99.90
3380;DHT22;1703;51.964;7.642;2023-02-28T09:26:31;4.10;99.90
3380;DHT22;1703;51.964;7.642;2023-02-28T09:29:07;4.20;99.90
3380;DHT22;1703;51.964;7.642;2023-02-28T09:31:35;4.30;99.90
3380;DHT22;1703;51.964;7.642;2023-02-28T09:34:04;4.30;99.90
3380;DHT22;1703;51.964;7.642;2023-02-28T09:36:30;4.50;99.90
3380;DHT22;1703;51.964;7.642;2023-02-28T09:38:58;4.50;99.90
3380;DHT22;1703;51.964;7.642;2023-02-28T09:41:32;4.60;99.90
3380;DHT22;1703;51.964;7.642;2023-02-28T09:44:12;4.60;99.90
3380;DHT22;1703;51.964;7.642;2023-02-28T09:46:52;4.70;99.90
3380;DHT22;1703;51.964;7.642;2023-02-28T09:49:23;4.70;99.90
3380;DHT22;1703;51.964;7.642;2023-02-28T09:51:57;4.80;99.90
3380;DHT22;1703;51.964;7.642;2023-02-28T09:54:28;4.80;99.90
3380;DHT22;1703;51.964;7.642;2023-02-28T09:56:59;4.90;99.90
3380;DHT22;1703;51.964;7.642;2023-02-28T10:00:14;5.00;99.90
3380;DHT22;1703;51.964;7.642;2023-02-28T10:03:03;5.00;99.90
3380;DHT22;1703;51.964;7.642;2023-02-28T10:05:33;5.10;99.90
3380;DHT22;1703;51.964;7.642;2023-02-28T10:08:08;5.20;99.90
3380;DHT22;1703;51.964;7.642;2023-02-28T10:10:40;5.20;99.90
3380;DHT22;1703;51.964;7.642;2023-02-28T10:13:15;5.30;99.90
3380;DHT22;1703;51.964;7.642;2023-02-28T10:15:45;5.40;99.90
3380;DHT22;1703;51.964;7.642;2023-02-28T10:18:19;5.50;99.90
3380;DHT22;1703;51.964;7.642;2023-02-28T10:20:47;5.40;99.90
3380;DHT22;1703;51.964;7.642;2023-02-28T10:23:19;5.40;99.90
3380;DHT22;1703;51.964;7.642;2023-02-28T10:25:52;5.50;99.90
3380;DHT22;1703;51.964;7.642;2023-02-28T10:28:19;5.60;99.90
3380;DHT22;1703;51.964;7.642;2023-02-28T10:30:48;5.60;99.90
3380;DHT22;1703;51.964;7.642;2023-02-28T10:33:22;5.60;99.90
3380;DHT22;1703;51.964;7.642;2023-02-28T10:35:50;5.70;99.90
3380;DHT22;1703;51.964;7.642;2023-02-28T10:38:19;5.80;99.90
3380;DHT22;1703;51.964;7.642;2023-02-28T10:40:46;5.80;99.90
3380;DHT22;1703;51.964;7.642;2023-02-28T10:43:20;5.70;99.90
3380;DHT22;1703;51.964;7.642;2023-02-28T10:45:59;5.80;99.90
3380;DHT22;1703;51.964;7.642;2023-02-28T10:48:34;5.80;99.90
3380;DHT22;1703;51.964;7.642;2023-02-28T10:51:04;5.90;99.90
3380;DHT22;1703;51.964;7.642;2023-02-28T10:53:34;6.00;99.90
3380;DHT22;1703;51.964;7.642;2023-02-28T10:56:03;6.00;99.90
3380;DHT22;1703;51.964;7.642;2023-02-28T10:58:40;6.00;99.90
3380;DHT22;1703;51.964;7.642;2023-02-28T11:01:13;6.00;99.90
3380;DHT22;1703;51.964;7.642;2023-02-28T11:03:48;6.10;99.90
3380;DHT22;1703;51.964;7.642;2023-02-28T11:06:17;6.10;99.90
3380;DHT22;1703;51.964;7.642;2023-02-28T11:08:53;6.10;99.90
3380;DHT22;1703;51.964;7.642;2023-02-28T11:11:22;6.20;99.90
3380;DHT22;1703;51.964;7.642;2023-02-28T11:13:52;6.10;99.90
3380;DHT22;1703;51.964;7.642;2023-02-28T11:16:19;6.10;99.90
3380;DHT22;1703;51.964;7.642;2023-02-28T11:18:50;6.10;99.90
3380;DHT22;1703;51.964;7.642;2023-02-28T11:21:21;6.10;99.90
3380;DHT22;1703;51.964;7.642;2023-02-28T11:23:51;6.10;99.90
3380;DHT22;1703;51.964;7.642;2023-02-28T11:26:37;6.20;99.90
3380;DHT22;1703;51.964;7.642;2023-02-28T11:29:17;6.20;99.90
3380;DHT22;1703;51.964;7.642;2023-02-28T11:32:01;6.30;99.90
3380;DHT22;1703;51.964;7.642;2023-02-28T11:34:30;6.40;99.90
3380;DHT22;1703;51.964;7.642;2023-02-28T11:36:59;6.40;99.90
3380;DHT22;1703;51.964;7.642;2023-02-28T11:39:30;6.50;99.90
3380;DHT22;1703;51.964;7.642;2023-02-28T11:45:18;6.50;99.90
3380;DHT22;1703;51.964;7.642;2023-02-28T11:47:54;6.50;99.90
3380;DHT22;1703;51.964;7.642;2023-02-28T11:50:52;6.60;99.90
3380;DHT22;1703;51.964;7.642;2023-02-28T11:53:29;6.60;99.90
3380;DHT22;1703;51.964;7.642;2023-02-28T11:56:05;6.60;99.90
3380;DHT22;1703;51.964;7.642;2023-02-28T11:58:42;6.60;99.90
3380;DHT22;1703;51.964;7.642;2023-02-28T12:01:26;6.60;99.90
3380;DHT22;1703;51.964;7.642;2023-02-28T12:04:03;6.60;99.90
3380;DHT22;1703;51.964;7.642;2023-02-28T12:06:40;6.60;99.90
3380;DHT22;1703;51.964;7.642;2023-02-28T12:09:32;6.60;99.90
3380;DHT22;1703;51.964;7.642;2023-02-28T12:12:10;6.60;99.90
3380;DHT22;1703;51.964;7.642;2023-02-28T12:17:56;6.70;99.90
3380;DHT22;1703;51.964;7.642;2023-02-28T12:20:35;6.70;99.90
3380;DHT22;1703;51.964;7.642;2023-02-28T12:23:52;6.80;99.90
3380;DHT22;1703;51.964;7.642;2023-02-28T12:26:31;6.60;99.90
3380;DHT22;1703;51.964;7.642;2023-02-28T12:29:12;6.60;99.90
3380;DHT22;1703;51.964;7.642;2023-02-28T12:31:49;6.70;99.90
3380;DHT22;1703;51.964;7.642;2023-02-28T12:34:22;6.70;99.90
3380;DHT22;1703;51.964;7.642;2023-02-28T12:36:52;6.80;99.90
3380;DHT22;1703;51.964;7.642;2023-02-28T12:39:26;6.80;99.90
3380;DHT22;1703;51.964;7.642;2023-02-28T12:41:55;6.90;99.90
3380;DHT22;1703;51.964;7.642;2023-02-28T12:44:27;6.80;99.90
3380;DHT22;1703;51.964;7.642;2023-02-28T12:46:58;6.80;99.90
3380;DHT22;1703;51.964;7.642;2023-02-28T12:49:29;6.90;99.90
3380;DHT22;1703;51.964;7.642;2023-02-28T12:52:03;6.90;99.90
3380;DHT22;1703;51.964;7.642;2023-02-28T12:54:40;7.00;99.90
3380;DHT22;1703;51.964;7.642;2023-02-28T12:57:17;7.00;99.90
3380;DHT22;1703;51.964;7.642;2023-02-28T12:59:50;6.90;99.90
3380;DHT22;1703;51.964;7.642;2023-02-28T13:02:42;6.90;99.90
3380;DHT22;1703;51.964;7.642;2023-02-28T13:09:08;7.00;99.90
3380;DHT22;1703;51.964;7.642;2023-02-28T13:11:43;6.90;99.90
3380;DHT22;1703;51.964;7.642;2023-02-28T13:14:24;7.10;99.90
3380;DHT22;1703;51.964;7.642;2023-02-28T13:17:03;7.20;99.90
3380;DHT22;1703;51.964;7.642;2023-02-28T13:19:38;7.30;99.90
3380;DHT22;1703;51.964;7.642;2023-02-28T13:22:17;7.10;99.90
3380;DHT22;1703;51.964;7.642;2023-02-28T13:24:47;7.10;99.90
3380;DHT22;1703;51.964;7.642;2023-02-28T13:33:22;7.30;99.90
3380;DHT22;1703;51.964;7.642;2023-02-28T13:36:06;7.30;99.90
3380;DHT22;1703;51.964;7.642;2023-02-28T13:38:38;7.30;99.90
3380;DHT22;1703;51.964;7.642;2023-02-28T13:41:40;7.40;99.90
3380;DHT22;1703;51.964;7.642;2023-02-28T13:44:09;7.40;99.90
3380;DHT22;1703;51.964;7.642;2023-02-28T13:49:42;7.50;99.90
3380;DHT22;1703;51.964;7.642;2023-02-28T13:52:14;7.50;99.90
3380;DHT22;1703;51.964;7.642;2023-02-28T13:54:56;7.60;99.90
3380;DHT22;1703;51.964;7.642;2023-02-28T13:57:31;7.50;99.90
3380;DHT22;1703;51.964;7.642;2023-02-28T14:00:15;7.60;99.90
3380;DHT22;1703;51.964;7.642;2023-02-28T14:02:59;7.60;99.90
3380;DHT22;1703;51.964;7.642;2023-02-28T14:05:28;7.70;99.90
3380;DHT22;1703;51.964;7.642;2023-02-28T14:07:58;7.80;99.90
3380;DHT22;1703;51.964;7.642;2023-02-28T14:10:27;7.90;99.90
3380;DHT22;1703;51.964;7.642;2023-02-28T14:12:57;8.10;99.90
3380;DHT22;1703;51.964;7.642;2023-02-28T14:15:47;8.50;99.90
3380;DHT22;1703;51.964;7.642;2023-02-28T14:18:25;9.20;99.90
3380;DHT22;1703;51.964;7.642;2023-02-28T14:20:55;10.20;99.90
3380;DHT22;1703;51.964;7.642;2023-02-28T14:23:35;10.70;99.30
3380;DHT22;1703;51.964;7.642;2023-02-28T14:26:13;11.60;98.50
3380;DHT22;1703;51.964;7.642;2023-02-28T14:28:55;12.30;98.10
3380;DHT22;1703;51.964;7.642;2023-02-28T14:31:28;12.90;95.70
3380;DHT22;1703;51.964;7.642;2023-02-28T14:34:13;13.10;93.40
3380;DHT22;1703;51.964;7.642;2023-02-28T14:36:43;12.90;92.90
3380;DHT22;1703;51.964;7.642;2023-02-28T14:39:13;12.60;93.50
3380;DHT22;1703;51.964;7.642;2023-02-28T14:41:41;12.70;92.10
3380;DHT22;1703;51.964;7.642;2023-02-28T14:44:16;12.60;92.10
3380;DHT22;1703;51.964;7.642;2023-02-28T14:46:48;12.50;92.40
3380;DHT22;1703;51.964;7.642;2023-02-28T14:49:18;12.40;92.50
3380;DHT22;1703;51.964;7.642;2023-02-28T14:51:45;12.50;92.30
3380;DHT22;1703;51.964;7.642;2023-02-28T14:54:15;12.40;92.40
3380;DHT22;1703;51.964;7.642;2023-02-28T14:56:43;12.10;92.40
3380;DHT22;1703;51.964;7.642;2023-02-28T14:59:28;11.90;92.90
3380;DHT22;1703;51.964;7.642;2023-02-28T15:02:17;11.60;93.40
3380;DHT22;1703;51.964;7.642;2023-02-28T15:04:53;11.40;93.60
3380;DHT22;1703;51.964;7.642;2023-02-28T15:07:20;11.30;93.50
3380;DHT22;1703;51.964;7.642;2023-02-28T15:10:13;11.00;93.10
3380;DHT22;1703;51.964;7.642;2023-02-28T15:12:40;11.20;95.20
3380;DHT22;1703;51.964;7.642;2023-02-28T15:15:15;11.30;95.60
3380;DHT22;1703;51.964;7.642;2023-02-28T15:17:46;11.40;94.70
3380;DHT22;1703;51.964;7.642;2023-02-28T15:20:16;11.60;93.10
3380;DHT22;1703;51.964;7.642;2023-02-28T15:22:44;11.40;92.70
3380;DHT22;1703;51.964;7.642;2023-02-28T15:25:17;11.40;92.60
3380;DHT22;1703;51.964;7.642;2023-02-28T15:27:48;11.30;93.20
3380;DHT22;1703;51.964;7.642;2023-02-28T15:30:17;11.20;92.90
3380;DHT22;1703;51.964;7.642;2023-02-28T15:33:02;10.90;93.20
3380;DHT22;1703;51.964;7.642;2023-02-28T15:35:32;10.90;92.70
3380;DHT22;1703;51.964;7.642;2023-02-28T15:38:02;11.00;93.20
3380;DHT22;1703;51.964;7.642;2023-02-28T15:40:33;11.50;93.10
3380;DHT22;1703;51.964;7.642;2023-02-28T15:43:05;11.70;93.30
3380;DHT22;1703;51.964;7.642;2023-02-28T15:45:36;11.40;92.30
3380;DHT22;1703;51.964;7.642;2023-02-28T15:48:16;11.00;92.50
3380;DHT22;1703;51.964;7.642;2023-02-28T15:50:44;10.50;93.30
3380;DHT22;1703;51.964;7.642;2023-02-28T15:53:15;9.90;94.50
3380;DHT22;1703;51.964;7.642;2023-02-28T15:55:42;9.60;95.10
3380;DHT22;1703;51.964;7.642;2023-02-28T15:58:11;9.30;95.40
3380;DHT22;1703;51.964;7.642;2023-02-28T16:00:39;9.00;95.90
3380;DHT22;1703;51.964;7.642;2023-02-28T16:03:25;8.80;96.90
3380;DHT22;1703;51.964;7.642;2023-02-28T16:06:23;8.50;97.10
3380;DHT22;1703;51.964;7.642;2023-02-28T16:08:51;8.20;98.00
3380;DHT22;1703;51.964;7.642;2023-02-28T16:11:20;8.10;98.50
3380;DHT22;1703;51.964;7.642;2023-02-28T16:13:47;8.00;98.70
3380;DHT22;1703;51.964;7.642;2023-02-28T16:16:16;7.80;98.90
3380;DHT22;1703;51.964;7.642;2023-02-28T16:18:44;7.70;99.50
3380;DHT22;1703;51.964;7.642;2023-02-28T16:21:11;7.60;99.90
3380;DHT22;1703;51.964;7.642;2023-02-28T16:23:38;7.40;99.90
3380;DHT22;1703;51.964;7.642;2023-02-28T16:26:05;7.40;99.90
3380;DHT22;1703;51.964;7.642;2023-02-28T16:28:34;7.20;99.90
3380;DHT22;1703;51.964;7.642;2023-02-28T16:31:05;7.10;99.90
3380;DHT22;1703;51.964;7.642;2023-02-28T16:33:33;7.10;99.90
3380;DHT22;1703;51.964;7.642;2023-02-28T16:36:02;7.10;99.90
3380;DHT22;1703;51.964;7.642;2023-02-28T16:38:29;7.00;99.90
3380;DHT22;1703;51.964;7.642;2023-02-28T16:40:59;7.00;99.90
3380;DHT22;1703;51.964;7.642;2023-02-28T16:43:26;7.00;99.90
3380;DHT22;1703;51.964;7.642;2023-02-28T16:45:55;6.90;99.90
3380;DHT22;1703;51.964;7.642;2023-02-28T16:48:22;6.90;99.90
3380;DHT22;1703;51.964;7.642;2023-02-28T16:50:49;6.80;99.90
3380;DHT22;1703;51.964;7.642;2023-02-28T16:53:17;6.80;99.90
3380;DHT22;1703;51.964;7.642;2023-02-28T16:55:44;6.70;99.90
3380;DHT22;1703;51.964;7.642;2023-02-28T16:58:15;6.60;99.90
3380;DHT22;1703;51.964;7.642;2023-02-28T17:00:43;6.50;99.90
3380;DHT22;1703;51.964;7.642;2023-02-28T17:03:20;6.60;99.90
3380;DHT22;1703;51.964;7.642;2023-02-28T17:05:48;6.50;99.90
3380;DHT22;1703;51.964;7.642;2023-02-28T17:08:16;6.40;99.90